Mount Meigs, Alabama
Current Conditions -  °F | °C
As of 5:58 PM on Sunday 23 Nov 2014 (Local Time) from KMXF Reporting Station
Clear Clear  
Wind Chill: 62°   Ceiling: Unl
Heat Index: 62°   Visibility: 10mi
Dew Point: 59°   Wind: 9mph
Humidity: 89%   Direction: 180°S
Pressure: 29.68"   Gusts: NA
Location:  32.36°N, 86.1°W
Report Text: KMXF 232358Z AUTO 18008KT 10SM CLR 17/15 A2968 RMK AO2 SLP053 60036 T01670148 10205 20167 51026
Loading
Personal Weather Stations






























Interactive Weather Map New forecast layout! Learn more

10-Day Weather Forecast

Advertisements
Track Severe Weather on mobile